Time;durP1;ratioP1;P1;durP2;ratioP2;P2;SDS_P1;SDS_P2;PMS_P1;PMS_P2;Temp;Humidity;BMP_temperature;BMP_pressure;BME280_temperature;BME280_humidity;BME280_pressure;Samples;Min_cycle;Max_cycle;Signal;HPM_P1;HPM_P2
2024/01/19 00:02:15;;;;;;;;;;;21.80;31.60;;;;;;5072364;28;19928;-69
2024/01/19 00:04:41;;;;;;;;;;;22.10;31.00;;;;;;5054546;28;20042;-69
2024/01/19 00:07:06;;;;;;;;;;;22.40;30.60;;;;;;5054103;28;20413;-69
2024/01/19 00:09:32;;;;;;;;;;;22.60;30.30;;;;;;5054366;28;19927;-69
2024/01/19 00:11:58;;;;;;;;;;;22.70;29.90;;;;;;5054111;28;20469;-69
2024/01/19 00:14:23;;;;;;;;;;;22.90;29.80;;;;;;5070690;28;19920;-70
2024/01/19 00:16:49;;;;;;;;;;;23.00;29.80;;;;;;5072228;28;19920;-69
2024/01/19 00:19:14;;;;;;;;;;;23.20;29.50;;;;;;5071956;28;20431;-69
2024/01/19 00:21:43;;;;;;;;;;;23.30;29.50;;;;;;5053942;28;19964;-69
2024/01/19 00:24:09;;;;;;;;;;;23.40;29.40;;;;;;5054128;28;19920;-70
2024/01/19 00:26:34;;;;;;;;;;;23.50;29.40;;;;;;5054174;28;20337;-69
2024/01/19 00:29:00;;;;;;;;;;;23.60;29.30;;;;;;5072095;28;19928;-69
2024/01/19 00:31:26;;;;;;;;;;;23.60;29.10;;;;;;5071958;28;20007;-69
2024/01/19 00:33:51;;;;;;;;;;;23.70;29.10;;;;;;5054132;28;19921;-69
2024/01/19 00:36:17;;;;;;;;;;;23.80;29.00;;;;;;5071841;28;19927;-69
2024/01/19 00:38:46;;;;;;;;;;;23.80;29.00;;;;;;5071885;28;19920;-69
2024/01/19 00:41:11;;;;;;;;;;;23.90;28.90;;;;;;5057795;28;19978;-69
2024/01/19 00:43:37;;;;;;;;;;;23.90;29.30;;;;;;5075475;28;20318;-69
2024/01/19 00:46:03;;;;;;;;;;;24.00;28.70;;;;;;5057789;28;19928;-69
2024/01/19 00:48:29;;;;;;;;;;;24.00;28.80;;;;;;5075445;28;19974;-69
2024/01/19 00:50:57;;;;;;;;;;;24.10;28.70;;;;;;5057441;28;20019;-69
2024/01/19 00:53:23;;;;;;;;;;;24.10;28.70;;;;;;5074096;28;20402;-69
2024/01/19 00:55:48;;;;;;;;;;;24.20;28.50;;;;;;5074051;28;19920;-69
2024/01/19 00:58:15;;;;;;;;;;;24.20;28.70;;;;;;5073948;28;19924;-69
2024/01/19 01:00:41;;;;;;;;;;;24.20;28.40;;;;;;5057368;28;19932;-69
2024/01/19 01:03:06;;;;;;;;;;;24.30;28.40;;;;;;5057857;28;19924;-69
2024/01/19 01:05:32;;;;;;;;;;;24.20;28.30;;;;;;5074215;28;19921;-69
2024/01/19 01:07:57;;;;;;;;;;;24.30;28.50;;;;;;5057205;28;19921;-69
2024/01/19 01:10:23;;;;;;;;;;;24.30;28.30;;;;;;5057289;28;19982;-69
2024/01/19 01:12:48;;;;;;;;;;;24.40;28.30;;;;;;5075229;28;19924;-69
2024/01/19 01:15:14;;;;;;;;;;;24.30;28.20;;;;;;5074974;28;20437;-69
2024/01/19 01:17:40;;;;;;;;;;;24.30;28.30;;;;;;5057285;28;20319;-69
2024/01/19 01:20:06;;;;;;;;;;;24.20;28.40;;;;;;5075280;28;20278;-69
2024/01/19 01:22:32;;;;;;;;;;;24.20;28.40;;;;;;5074877;28;20300;-69
2024/01/19 01:24:58;;;;;;;;;;;24.20;28.50;;;;;;5057059;28;19924;-69
2024/01/19 01:27:23;;;;;;;;;;;24.20;28.40;;;;;;5073803;28;19920;-69
2024/01/19 01:29:49;;;;;;;;;;;24.20;28.50;;;;;;5057050;28;20385;-69
2024/01/19 01:32:14;;;;;;;;;;;24.30;28.50;;;;;;5074750;28;20391;-69
2024/01/19 01:34:40;;;;;;;;;;;24.40;28.40;;;;;;5073732;28;19920;-69
2024/01/19 01:37:05;;;;;;;;;;;24.40;28.30;;;;;;5073301;28;19921;-69
2024/01/19 01:39:31;;;;;;;;;;;24.50;28.10;;;;;;5056481;28;19925;-69
2024/01/19 01:41:57;;;;;;;;;;;24.50;28.20;;;;;;5074267;28;19924;-69
2024/01/19 01:44:22;;;;;;;;;;;24.60;28.10;;;;;;5073543;28;19920;-69
2024/01/19 01:46:48;;;;;;;;;;;24.60;28.10;;;;;;5056653;28;20265;-69
2024/01/19 01:49:14;;;;;;;;;;;24.70;28.10;;;;;;5074225;28;20391;-69
2024/01/19 01:51:40;;;;;;;;;;;24.70;28.10;;;;;;5074020;28;20293;-69
2024/01/19 01:54:07;;;;;;;;;;;24.70;28.10;;;;;;5056625;28;19920;-69
2024/01/19 01:56:32;;;;;;;;;;;24.70;28.10;;;;;;5074135;28;19986;-69
2024/01/19 01:58:58;;;;;;;;;;;24.70;28.10;;;;;;5056550;28;19928;-69
2024/01/19 02:01:24;;;;;;;;;;;24.70;28.00;;;;;;5056022;28;19924;-69
2024/01/19 02:03:51;;;;;;;;;;;24.70;28.00;;;;;;5074124;28;19921;-69
2024/01/19 02:06:16;;;;;;;;;;;24.70;28.00;;;;;;5073931;28;20015;-71
2024/01/19 02:08:42;;;;;;;;;;;24.80;28.00;;;;;;5056578;28;20357;-69
2024/01/19 02:11:08;;;;;;;;;;;24.80;28.00;;;;;;5055871;28;19921;-69
2024/01/19 02:13:33;;;;;;;;;;;24.80;27.90;;;;;;5074341;28;19998;-69
2024/01/19 02:16:00;;;;;;;;;;;24.80;27.90;;;;;;5074034;28;19927;-70
2024/01/19 02:18:29;;;;;;;;;;;24.90;28.00;;;;;;5056211;28;19962;-70
2024/01/19 02:20:54;;;;;;;;;;;24.90;27.90;;;;;;5055911;28;19929;-70
2024/01/19 02:23:21;;;;;;;;;;;24.90;27.80;;;;;;5055954;28;19973;-70
2024/01/19 02:25:47;;;;;;;;;;;24.90;27.90;;;;;;5055978;28;19924;-69
2024/01/19 02:28:13;;;;;;;;;;;25.00;27.90;;;;;;5055591;28;19985;-69
2024/01/19 02:30:40;;;;;;;;;;;25.00;27.90;;;;;;5055497;28;19927;-69
2024/01/19 02:33:06;;;;;;;;;;;25.00;27.90;;;;;;5073419;28;20012;-69
2024/01/19 02:35:34;;;;;;;;;;;25.00;27.90;;;;;;5055908;28;19986;-70
2024/01/19 02:38:00;;;;;;;;;;;25.00;27.80;;;;;;5053884;28;19921;-69
2024/01/19 02:40:26;;;;;;;;;;;25.00;27.80;;;;;;5072971;28;19924;-69
2024/01/19 02:42:52;;;;;;;;;;;25.00;27.80;;;;;;5073379;28;19927;-69
2024/01/19 02:45:17;;;;;;;;;;;25.00;27.80;;;;;;5055311;28;20007;-69
2024/01/19 02:47:43;;;;;;;;;;;25.00;27.80;;;;;;5073503;28;19963;-69
2024/01/19 02:50:08;;;;;;;;;;;25.00;27.80;;;;;;5072229;28;19963;-69
2024/01/19 02:52:34;;;;;;;;;;;25.00;27.80;;;;;;5055285;28;20343;-69
2024/01/19 02:54:59;;;;;;;;;;;25.00;27.70;;;;;;5055422;28;20019;-69
2024/01/19 02:57:25;;;;;;;;;;;25.00;27.80;;;;;;5055023;28;20391;-69
2024/01/19 02:59:51;;;;;;;;;;;25.00;27.80;;;;;;5055414;28;19924;-69
2024/01/19 03:02:16;;;;;;;;;;;25.00;27.80;;;;;;5072241;28;20375;-69
2024/01/19 03:04:42;;;;;;;;;;;25.00;27.80;;;;;;5055230;28;19928;-69
2024/01/19 03:07:07;;;;;;;;;;;24.90;28.50;;;;;;5072893;28;19921;-69
2024/01/19 03:09:33;;;;;;;;;;;24.80;28.00;;;;;;5072680;28;20341;-69
2024/01/19 03:11:58;;;;;;;;;;;24.80;28.00;;;;;;5055148;28;20015;-69
2024/01/19 03:14:24;;;;;;;;;;;24.90;28.10;;;;;;5071458;28;20384;-69
2024/01/19 03:16:51;;;;;;;;;;;24.80;28.00;;;;;;5071534;28;19973;-69
2024/01/19 03:19:19;;;;;;;;;;;24.90;28.00;;;;;;5054546;28;19921;-69
2024/01/19 03:21:46;;;;;;;;;;;24.90;27.90;;;;;;5071336;28;20043;-69
2024/01/19 03:24:11;;;;;;;;;;;25.00;27.90;;;;;;5054585;28;20007;-70
2024/01/19 03:26:39;;;;;;;;;;;25.00;27.80;;;;;;5072491;28;20439;-70
2024/01/19 03:29:04;;;;;;;;;;;25.00;27.90;;;;;;5054860;28;19933;-69
2024/01/19 03:31:30;;;;;;;;;;;25.00;27.80;;;;;;5072708;28;20297;-69
2024/01/19 03:33:55;;;;;;;;;;;25.10;27.80;;;;;;5054795;28;19920;-69
2024/01/19 03:36:21;;;;;;;;;;;25.10;27.80;;;;;;5072342;28;20005;-71
2024/01/19 03:38:46;;;;;;;;;;;25.10;27.80;;;;;;5071237;28;20054;-69
2024/01/19 03:41:12;;;;;;;;;;;25.10;27.80;;;;;;5071038;28;19974;-69
2024/01/19 03:43:38;;;;;;;;;;;25.10;27.80;;;;;;5054661;28;19966;-70
2024/01/19 03:46:03;;;;;;;;;;;25.10;27.70;;;;;;5071291;28;19920;-69
2024/01/19 03:48:29;;;;;;;;;;;25.10;27.80;;;;;;5054273;28;20406;-69
2024/01/19 03:50:54;;;;;;;;;;;25.10;27.80;;;;;;5072406;28;20026;-70
2024/01/19 03:53:20;;;;;;;;;;;25.10;27.80;;;;;;5054594;28;19967;-69
2024/01/19 03:55:45;;;;;;;;;;;25.10;27.80;;;;;;5054166;28;19968;-70
2024/01/19 03:58:11;;;;;;;;;;;25.10;27.80;;;;;;5072097;28;19921;-69
2024/01/19 04:00:36;;;;;;;;;;;25.20;27.80;;;;;;5054354;28;19955;-70
2024/01/19 04:03:02;;;;;;;;;;;25.10;27.80;;;;;;5054526;28;19927;-69
2024/01/19 04:05:31;;;;;;;;;;;25.10;27.80;;;;;;5054144;28;20023;-69
2024/01/19 04:07:56;;;;;;;;;;;25.10;27.80;;;;;;5054083;28;19924;-69
2024/01/19 04:10:22;;;;;;;;;;;25.20;27.80;;;;;;5054376;28;19927;-69
2024/01/19 04:12:49;;;;;;;;;;;25.20;27.70;;;;;;5055140;28;19921;-69
2024/01/19 04:15:15;;;;;;;;;;;25.20;27.80;;;;;;5058501;28;20148;-69
2024/01/19 04:17:41;;;;;;;;;;;25.10;27.70;;;;;;5076176;28;19927;-69
2024/01/19 04:20:07;;;;;;;;;;;25.10;27.80;;;;;;5057962;28;19928;-69
2024/01/19 04:22:33;;;;;;;;;;;25.10;27.80;;;;;;5058277;28;20307;-70
2024/01/19 04:24:59;;;;;;;;;;;25.20;27.80;;;;;;5075926;28;19920;-69
2024/01/19 04:27:24;;;;;;;;;;;25.20;27.90;;;;;;5074628;28;20060;-69
2024/01/19 04:29:52;;;;;;;;;;;25.20;27.80;;;;;;5075855;28;19925;-70
2024/01/19 04:32:18;;;;;;;;;;;25.20;27.80;;;;;;5058113;28;20280;-69
2024/01/19 04:34:43;;;;;;;;;;;25.20;27.80;;;;;;5075730;28;19927;-69
2024/01/19 04:37:09;;;;;;;;;;;25.10;27.80;;;;;;5075686;28;20015;-69
2024/01/19 04:39:34;;;;;;;;;;;25.10;27.80;;;;;;5075555;28;19934;-69
2024/01/19 04:42:00;;;;;;;;;;;25.20;27.80;;;;;;5074273;28;19925;-69
2024/01/19 04:44:25;;;;;;;;;;;25.20;27.80;;;;;;5075521;28;19973;-70
2024/01/19 04:46:51;;;;;;;;;;;25.10;27.80;;;;;;5075478;28;20387;-69
2024/01/19 04:49:16;;;;;;;;;;;25.20;27.80;;;;;;5074268;28;20015;-69
2024/01/19 04:51:42;;;;;;;;;;;25.10;27.80;;;;;;5041123;28;19970;-69
2024/01/19 04:54:14;;;;;;;;;;;25.20;28.50;;;;;;5057867;28;19928;-69
2024/01/19 04:56:39;;;;;;;;;;;25.20;27.90;;;;;;5057978;28;20007;-69
2024/01/19 04:59:05;;;;;;;;;;;25.20;27.90;;;;;;5073848;28;20003;-70
2024/01/19 05:01:33;;;;;;;;;;;25.20;27.90;;;;;;5057485;28;19978;-69
2024/01/19 05:03:59;;;;;;;;;;;25.20;27.90;;;;;;5073888;28;19921;-70
2024/01/19 05:06:24;;;;;;;;;;;25.20;27.90;;;;;;5057524;28;19920;-69
2024/01/19 05:08:50;;;;;;;;;;;25.20;27.80;;;;;;5075231;28;20324;-69
2024/01/19 05:11:16;;;;;;;;;;;25.20;27.90;;;;;;5074223;28;19921;-69
2024/01/19 05:13:41;;;;;;;;;;;25.20;27.80;;;;;;5073649;28;19970;-69
2024/01/19 05:16:07;;;;;;;;;;;25.30;27.80;;;;;;5057299;28;19924;-69
2024/01/19 05:18:33;;;;;;;;;;;25.30;27.80;;;;;;5074840;28;19974;-69
2024/01/19 05:20:59;;;;;;;;;;;25.40;27.80;;;;;;5074855;28;19925;-69
2024/01/19 05:23:24;;;;;;;;;;;25.40;27.70;;;;;;5073998;28;20015;-69
2024/01/19 05:25:50;;;;;;;;;;;25.50;27.70;;;;;;5055999;28;20015;-69
2024/01/19 05:28:15;;;;;;;;;;;25.60;27.60;;;;;;5056992;28;19920;-69
2024/01/19 05:30:42;;;;;;;;;;;25.70;27.70;;;;;;5056730;28;19921;-70
2024/01/19 05:33:08;;;;;;;;;;;25.70;27.50;;;;;;5073673;28;19921;-70
2024/01/19 05:35:34;;;;;;;;;;;25.80;27.60;;;;;;5056740;28;20340;-69
2024/01/19 05:37:59;;;;;;;;;;;25.80;27.40;;;;;;5074736;28;19929;-69
2024/01/19 05:40:25;;;;;;;;;;;25.80;27.50;;;;;;5072999;28;19924;-69
2024/01/19 05:42:50;;;;;;;;;;;25.90;27.50;;;;;;5074543;28;19929;-69
2024/01/19 05:45:16;;;;;;;;;;;25.90;27.50;;;;;;5056301;28;19920;-69
2024/01/19 05:47:42;;;;;;;;;;;25.80;27.50;;;;;;5073404;28;19994;-70
2024/01/19 05:50:08;;;;;;;;;;;25.80;27.60;;;;;;5056683;28;19974;-70
2024/01/19 05:52:33;;;;;;;;;;;25.80;27.70;;;;;;5073079;28;20376;-70
2024/01/19 05:54:59;;;;;;;;;;;25.70;27.60;;;;;;5074406;28;20008;-70
2024/01/19 05:57:31;;;;;;;;;;;25.60;27.60;;;;;;5074186;28;20306;-69
2024/01/19 05:59:56;;;;;;;;;;;25.50;27.60;;;;;;5056811;28;19927;-70
2024/01/19 06:02:22;;;;;;;;;;;25.50;27.70;;;;;;5072870;28;19920;-69
2024/01/19 06:04:47;;;;;;;;;;;25.50;27.80;;;;;;5056463;28;19924;-69
2024/01/19 06:07:13;;;;;;;;;;;25.40;27.80;;;;;;5056141;28;19928;-70
2024/01/19 06:09:41;;;;;;;;;;;25.40;27.90;;;;;;5074263;28;20331;-69
2024/01/19 06:12:07;;;;;;;;;;;25.40;28.00;;;;;;5073998;28;19927;-70
2024/01/19 06:14:32;;;;;;;;;;;25.30;28.00;;;;;;5056179;28;19920;-70
2024/01/19 06:16:58;;;;;;;;;;;25.30;28.00;;;;;;5056173;28;20372;-70
2024/01/19 06:19:23;;;;;;;;;;;25.30;28.00;;;;;;5073962;28;19920;-69
2024/01/19 06:21:49;;;;;;;;;;;25.30;28.00;;;;;;5072436;28;20445;-69
2024/01/19 06:24:15;;;;;;;;;;;25.30;27.90;;;;;;5056088;28;19929;-69
2024/01/19 06:26:44;;;;;;;;;;;25.40;28.20;;;;;;5055769;28;20014;-70
2024/01/19 06:29:14;;;;;;;;;;;25.40;27.90;;;;;;5055999;28;19920;-70
2024/01/19 06:31:47;;;;;;;;;;;25.40;27.80;;;;;;5072390;28;19943;-70
2024/01/19 06:34:13;;;;;;;;;;;25.50;27.90;;;;;;5073497;28;20019;-69
2024/01/19 06:36:39;;;;;;;;;;;25.50;27.80;;;;;;5072316;28;19925;-70
2024/01/19 06:39:04;;;;;;;;;;;25.50;27.80;;;;;;5071936;28;19928;-69
2024/01/19 06:41:30;;;;;;;;;;;25.50;27.80;;;;;;5071935;28;19931;-69
2024/01/19 06:43:56;;;;;;;;;;;25.50;27.80;;;;;;5055676;28;19967;-69
2024/01/19 06:46:24;;;;;;;;;;;25.50;27.80;;;;;;5055525;28;19928;-70
2024/01/19 06:48:50;;;;;;;;;;;25.50;27.70;;;;;;5055761;28;20356;-69
2024/01/19 06:51:16;;;;;;;;;;;25.50;27.70;;;;;;5073219;28;19927;-70
2024/01/19 06:53:42;;;;;;;;;;;25.50;27.70;;;;;;5054211;28;19921;-67
2024/01/19 06:56:07;;;;;;;;;;;25.40;27.70;;;;;;5053060;28;19926;-68
2024/01/19 06:58:33;;;;;;;;;;;25.20;28.20;;;;;;5071004;28;20330;-68
2024/01/19 07:00:58;;;;;;;;;;;25.00;28.50;;;;;;5052143;28;20059;-68
2024/01/19 07:03:24;;;;;;;;;;;24.90;28.90;;;;;;5068209;28;19931;-69
2024/01/19 07:05:49;;;;;;;;;;;24.80;29.00;;;;;;5049480;28;19926;-68
2024/01/19 07:08:15;;;;;;;;;;;24.80;29.20;;;;;;5047893;28;19973;-67
2024/01/19 07:10:41;;;;;;;;;;;24.90;29.20;;;;;;5049518;28;20015;-67
2024/01/19 07:13:06;;;;;;;;;;;25.00;29.20;;;;;;5066428;28;20355;-67
2024/01/19 07:15:32;;;;;;;;;;;25.10;29.10;;;;;;5067340;28;19920;-69
2024/01/19 07:17:57;;;;;;;;;;;25.10;29.00;;;;;;5064942;28;19920;-66
2024/01/19 07:20:23;;;;;;;;;;;25.00;28.90;;;;;;5048907;28;19935;-69
2024/01/19 07:22:50;;;;;;;;;;;25.00;28.90;;;;;;5052115;28;20315;-68
2024/01/19 07:25:16;;;;;;;;;;;25.00;28.90;;;;;;5067574;28;19921;-70
2024/01/19 07:27:41;;;;;;;;;;;25.00;28.80;;;;;;5063548;28;20061;-72
2024/01/19 07:30:07;;;;;;;;;;;25.20;28.90;;;;;;5056819;28;19927;-72
2024/01/19 07:32:32;;;;;;;;;;;25.20;28.70;;;;;;5043965;28;19931;-72
2024/01/19 07:34:58;;;;;;;;;;;25.30;28.70;;;;;;5043481;28;20369;-71
2024/01/19 07:37:24;;;;;;;;;;;25.40;28.60;;;;;;5062078;28;20567;-71
2024/01/19 07:39:49;;;;;;;;;;;25.40;28.50;;;;;;5039522;28;19933;-71
2024/01/19 07:42:15;;;;;;;;;;;25.40;28.20;;;;;;5031999;28;19933;-70
2024/01/19 07:44:40;;;;;;;;;;;25.40;28.00;;;;;;5033858;28;20304;-71
2024/01/19 07:47:09;;;;;;;;;;;25.30;27.90;;;;;;5035910;28;20024;-70
2024/01/19 07:49:34;;;;;;;;;;;25.20;28.10;;;;;;5029340;28;20040;-69
2024/01/19 07:52:00;;;;;;;;;;;25.10;28.30;;;;;;5032109;28;19970;-69
2024/01/19 07:54:25;;;;;;;;;;;25.10;28.30;;;;;;5035610;28;19920;-74
2024/01/19 07:56:51;;;;;;;;;;;25.10;28.50;;;;;;5032738;28;20402;-68
2024/01/19 07:59:16;;;;;;;;;;;25.20;28.50;;;;;;5031802;28;19920;-69
2024/01/19 08:01:43;;;;;;;;;;;25.00;28.70;;;;;;5030562;28;19936;-68
2024/01/19 08:04:08;;;;;;;;;;;25.20;28.90;;;;;;5028285;28;19964;-70
2024/01/19 08:06:34;;;;;;;;;;;25.20;29.60;;;;;;5030556;28;20389;-70
2024/01/19 08:08:59;;;;;;;;;;;25.10;28.90;;;;;;5049978;28;19925;-70
2024/01/19 08:11:25;;;;;;;;;;;25.00;28.90;;;;;;5034292;28;19971;-75
2024/01/19 08:13:50;;;;;;;;;;;24.70;29.00;;;;;;5025489;28;19968;-73
2024/01/19 08:16:16;;;;;;;;;;;24.40;29.40;;;;;;5032507;28;20000;-67
2024/01/19 08:18:44;;;;;;;;;;;24.20;29.70;;;;;;5009124;28;19925;-67
2024/01/19 08:21:09;;;;;;;;;;;24.10;29.90;;;;;;5031167;28;19929;-67
2024/01/19 08:23:35;;;;;;;;;;;24.00;30.10;;;;;;5034337;28;19999;-67
2024/01/19 08:26:01;;;;;;;;;;;23.90;30.10;;;;;;5032380;28;19964;-67
2024/01/19 08:28:26;;;;;;;;;;;23.70;30.30;;;;;;5034239;28;19921;-67
2024/01/19 08:30:52;;;;;;;;;;;23.60;30.30;;;;;;5034507;28;19978;-67
2024/01/19 08:33:17;;;;;;;;;;;23.40;30.60;;;;;;5033668;28;20273;-66
2024/01/19 08:35:43;;;;;;;;;;;23.20;30.40;;;;;;5031135;28;19921;-67
2024/01/19 08:38:08;;;;;;;;;;;23.00;30.90;;;;;;5034726;28;19991;-72
2024/01/19 08:40:37;;;;;;;;;;;22.80;31.20;;;;;;5031401;28;19939;-66
2024/01/19 08:43:02;;;;;;;;;;;22.60;31.40;;;;;;5029679;28;19925;-67
2024/01/19 08:45:28;;;;;;;;;;;22.40;31.80;;;;;;5033898;28;19931;-68
2024/01/19 08:47:55;;;;;;;;;;;22.30;32.00;;;;;;5029706;28;20193;-71
2024/01/19 08:50:21;;;;;;;;;;;22.10;32.30;;;;;;5031669;28;19921;-72
2024/01/19 08:52:46;;;;;;;;;;;21.90;32.30;;;;;;5032348;28;19925;-70
2024/01/19 08:55:12;;;;;;;;;;;21.90;32.90;;;;;;5029247;28;19931;-69
2024/01/19 08:57:37;;;;;;;;;;;22.30;33.40;;;;;;5017540;28;19952;-68
2024/01/19 09:00:07;;;;;;;;;;;22.90;32.40;;;;;;5011120;28;19931;-69
2024/01/19 09:02:33;;;;;;;;;;;23.50;32.60;;;;;;5029537;28;19932;-68
2024/01/19 09:04:59;;;;;;;;;;;24.00;31.00;;;;;;5026982;28;20604;-69
2024/01/19 09:07:25;;;;;;;;;;;24.30;31.20;;;;;;5031443;28;20008;-70
2024/01/19 09:09:50;;;;;;;;;;;24.60;30.90;;;;;;5032009;28;19925;-69
2024/01/19 09:12:16;;;;;;;;;;;25.00;30.30;;;;;;5030425;28;19967;-68
2024/01/19 09:14:41;;;;;;;;;;;25.30;30.20;;;;;;5032646;28;19925;-69
2024/01/19 09:17:07;;;;;;;;;;;25.60;30.20;;;;;;5032920;28;20285;-68
2024/01/19 09:19:32;;;;;;;;;;;25.90;29.50;;;;;;5029642;28;20583;-70
2024/01/19 09:21:58;;;;;;;;;;;25.90;29.40;;;;;;5027567;28;19924;-66
2024/01/19 09:24:24;;;;;;;;;;;25.90;29.60;;;;;;5028706;28;19979;-69
2024/01/19 09:26:49;;;;;;;;;;;25.90;29.80;;;;;;5026816;28;19926;-68
2024/01/19 09:29:16;;;;;;;;;;;25.80;29.90;;;;;;5047899;28;20352;-67
2024/01/19 09:31:42;;;;;;;;;;;25.70;29.90;;;;;;5031501;28;20012;-71
2024/01/19 09:34:07;;;;;;;;;;;25.50;29.70;;;;;;5033919;28;19928;-70
2024/01/19 09:36:33;;;;;;;;;;;25.00;29.70;;;;;;5027843;28;19932;-67
2024/01/19 09:38:58;;;;;;;;;;;24.60;30.00;;;;;;5039419;28;19920;-68
2024/01/19 09:41:36;;;;;;;;;;;24.30;30.00;;;;;;5056555;28;20033;-69
2024/01/19 09:44:06;;;;;;;;;;;23.90;30.20;;;;;;5056799;28;20577;-67
2024/01/19 09:46:35;;;;;;;;;;;23.40;30.60;;;;;;5041591;28;19924;-67
2024/01/19 09:51:56;;;;;;;;;;;22.90;31.20;;;;;;5086571;27;19921;-67
2024/01/19 09:54:27;;;;;;;;;;;22.60;31.60;;;;;;5083526;28;19921;-67
2024/01/19 09:56:53;;;;;;;;;;;22.50;32.00;;;;;;5072764;28;20130;-66
2024/01/19 09:59:20;;;;;;;;;;;22.30;32.20;;;;;;5071845;28;20200;-68
2024/01/19 10:01:46;;;;;;;;;;;22.20;32.50;;;;;;5073400;28;19920;-66
2024/01/19 10:04:13;;;;;;;;;;;22.10;32.80;;;;;;5068576;28;19954;-67
2024/01/19 10:06:38;;;;;;;;;;;22.00;33.20;;;;;;5073354;28;19924;-67
2024/01/19 10:09:05;;;;;;;;;;;22.00;33.00;;;;;;5069368;28;20280;-66
2024/01/19 10:11:30;;;;;;;;;;;22.20;33.00;;;;;;5074497;28;20412;-67
2024/01/19 10:13:59;;;;;;;;;;;22.30;32.90;;;;;;5072206;28;19924;-66
2024/01/19 10:16:27;;;;;;;;;;;22.50;32.90;;;;;;5072660;28;19924;-66
2024/01/19 10:18:53;;;;;;;;;;;22.60;32.70;;;;;;5091891;28;20005;-66
2024/01/19 10:21:34;;;;;;;;;;;22.80;32.50;;;;;;5075688;28;20021;-66
2024/01/19 10:24:08;;;;;;;;;;;22.90;32.40;;;;;;5071397;28;20421;-66
2024/01/19 10:26:35;;;;;;;;;;;23.00;32.20;;;;;;5068844;28;19924;-67
2024/01/19 10:29:16;;;;;;;;;;;23.20;32.20;;;;;;5088297;28;20287;-67
2024/01/19 10:31:44;;;;;;;;;;;23.20;32.00;;;;;;5076511;28;20496;-67
2024/01/19 10:34:19;;;;;;;;;;;23.30;32.00;;;;;;5088446;28;19924;-66
2024/01/19 10:36:45;;;;;;;;;;;23.30;32.00;;;;;;5076870;28;21403;-65
2024/01/19 10:39:29;;;;;;;;;;;23.10;32.10;;;;;;5079178;28;20279;-66
2024/01/19 10:42:03;;;;;;;;;;;22.90;32.30;;;;;;5075774;28;19963;-67
2024/01/19 10:44:29;;;;;;;;;;;22.90;32.40;;;;;;5071115;28;19920;-65
2024/01/19 10:46:56;;;;;;;;;;;23.00;32.50;;;;;;5091449;28;20001;-66
2024/01/19 10:49:21;;;;;;;;;;;23.00;32.70;;;;;;5070171;28;19931;-67
2024/01/19 10:51:47;;;;;;;;;;;23.00;32.60;;;;;;5091616;28;19932;-65
2024/01/19 10:54:23;;;;;;;;;;;23.00;32.60;;;;;;5072438;28;19924;-73
2024/01/19 10:57:00;;;;;;;;;;;23.30;32.90;;;;;;5066245;28;20015;-68
2024/01/19 10:59:25;;;;;;;;;;;23.60;32.90;;;;;;5077310;28;19928;-67
2024/01/19 11:01:56;;;;;;;;;;;24.10;32.90;;;;;;5067084;28;20430;-68
2024/01/19 11:04:22;;;;;;;;;;;24.60;32.70;;;;;;5058670;28;19969;-69
2024/01/19 11:06:47;;;;;;;;;;;25.10;32.30;;;;;;5045119;28;19924;-69
2024/01/19 11:09:13;;;;;;;;;;;25.60;32.00;;;;;;5058087;28;19925;-68
2024/01/19 11:11:41;;;;;;;;;;;26.10;31.60;;;;;;5057324;28;19928;-67
2024/01/19 11:14:08;;;;;;;;;;;26.60;31.30;;;;;;5057240;28;20391;-68
2024/01/19 11:16:39;;;;;;;;;;;27.00;31.00;;;;;;5075662;28;19924;-69
2024/01/19 11:19:06;;;;;;;;;;;27.20;29.70;;;;;;5064678;28;19927;-66
2024/01/19 11:21:31;;;;;;;;;;;27.20;29.20;;;;;;5076783;28;19924;-66
2024/01/19 11:23:57;;;;;;;;;;;27.10;29.10;;;;;;5077608;28;20040;-65
2024/01/19 11:26:29;;;;;;;;;;;26.90;29.20;;;;;;5062263;28;19981;-68
2024/01/19 11:28:58;;;;;;;;;;;26.80;29.20;;;;;;5072736;28;19927;-68
2024/01/19 11:31:26;;;;;;;;;;;26.70;29.40;;;;;;5067812;28;19924;-69
2024/01/19 11:33:54;;;;;;;;;;;26.70;29.20;;;;;;5088419;28;20450;-68
2024/01/19 11:39:38;;;;;;;;;;;26.60;29.20;;;;;;5103147;27;19916;-70
2024/01/19 11:42:03;;;;;;;;;;;26.70;29.30;;;;;;5087406;28;19920;-69
2024/01/19 11:44:39;;;;;;;;;;;26.90;29.30;;;;;;5083330;28;20380;-68
2024/01/19 11:47:04;;;;;;;;;;;27.10;29.30;;;;;;5070877;28;20077;-68
2024/01/19 11:54:51;;;;;;;;;;;27.70;29.30;;;;;;5087109;27;19917;-67
2024/01/19 11:57:18;;;;;;;;;;;27.90;29.10;;;;;;5086738;28;19946;-71
2024/01/19 11:59:44;;;;;;;;;;;28.00;29.10;;;;;;5095068;28;19924;-67
2024/01/19 12:02:19;;;;;;;;;;;27.90;28.90;;;;;;5082382;28;19931;-68
2024/01/19 12:04:46;;;;;;;;;;;27.80;28.90;;;;;;5098842;28;20399;-68
2024/01/19 12:07:16;;;;;;;;;;;27.50;28.90;;;;;;5087481;28;19924;-70
2024/01/19 12:09:42;;;;;;;;;;;27.30;29.10;;;;;;5086179;28;20420;-70
2024/01/19 12:12:08;;;;;;;;;;;27.00;29.30;;;;;;5086803;28;19924;-71
2024/01/19 12:14:33;;;;;;;;;;;26.70;29.50;;;;;;5087221;28;19952;-71
2024/01/19 12:16:59;;;;;;;;;;;26.40;29.70;;;;;;5094866;28;20227;-68
2024/01/19 12:19:24;;;;;;;;;;;26.10;30.00;;;;;;5087991;28;19924;-68
2024/01/19 12:21:50;;;;;;;;;;;25.80;30.10;;;;;;5095933;28;19926;-69
2024/01/19 12:24:19;;;;;;;;;;;25.50;30.40;;;;;;5088658;28;20440;-67
2024/01/19 12:26:52;;;;;;;;;;;25.30;30.90;;;;;;5089171;28;19975;-68
2024/01/19 12:29:32;;;;;;;;;;;25.10;31.20;;;;;;5081233;28;20172;-66
2024/01/19 12:32:14;;;;;;;;;;;24.80;31.40;;;;;;5085372;28;19920;-66
2024/01/19 12:34:39;;;;;;;;;;;24.50;32.00;;;;;;5085711;28;20246;-67
2024/01/19 12:37:05;;;;;;;;;;;24.30;31.90;;;;;;5089125;28;20234;-68
2024/01/19 12:39:31;;;;;;;;;;;24.10;32.50;;;;;;5090272;28;19927;-67
2024/01/19 12:42:00;;;;;;;;;;;23.90;32.60;;;;;;5087746;28;20501;-67
2024/01/19 12:44:26;;;;;;;;;;;23.70;33.00;;;;;;5098417;28;19920;-66
2024/01/19 12:46:51;;;;;;;;;;;23.50;33.10;;;;;;5091279;28;19935;-66
2024/01/19 12:49:17;;;;;;;;;;;23.30;33.40;;;;;;5092831;28;20442;-66
2024/01/19 12:51:43;;;;;;;;;;;23.20;33.70;;;;;;5126061;27;19924;-66
2024/01/19 12:54:09;;;;;;;;;;;23.00;33.20;;;;;;5092624;28;19932;-66
2024/01/19 12:56:34;;;;;;;;;;;22.70;33.30;;;;;;5092317;28;20360;-68
2024/01/19 12:59:08;;;;;;;;;;;22.60;33.70;;;;;;5092862;28;19920;-68
2024/01/19 13:01:35;;;;;;;;;;;22.40;33.80;;;;;;5088179;28;20325;-65
2024/01/19 13:04:00;;;;;;;;;;;22.30;34.10;;;;;;5089107;28;19920;-67
2024/01/19 13:06:26;;;;;;;;;;;22.20;34.00;;;;;;5076283;28;20337;-67
2024/01/19 13:08:52;;;;;;;;;;;22.10;34.30;;;;;;5071211;28;20461;-67
2024/01/19 13:11:20;;;;;;;;;;;22.00;34.30;;;;;;5102453;27;19924;-67
2024/01/19 13:13:47;;;;;;;;;;;21.90;34.40;;;;;;5106402;27;19955;-66
2024/01/19 13:16:12;;;;;;;;;;;21.80;34.50;;;;;;5075392;28;19920;-67
2024/01/19 13:18:42;;;;;;;;;;;21.70;34.80;;;;;;5073366;28;20224;-66
2024/01/19 13:21:12;;;;;;;;;;;21.60;34.90;;;;;;5073040;28;19924;-67
2024/01/19 13:23:37;;;;;;;;;;;21.40;35.20;;;;;;5072064;28;19947;-67
2024/01/19 13:26:04;;;;;;;;;;;21.40;35.20;;;;;;5074711;28;20395;-67
2024/01/19 13:28:29;;;;;;;;;;;21.30;35.00;;;;;;5072779;28;19930;-66
2024/01/19 13:30:55;;;;;;;;;;;21.20;35.20;;;;;;5072536;28;20375;-67
2024/01/19 13:33:24;;;;;;;;;;;21.10;35.50;;;;;;5075597;28;19924;-67
2024/01/19 13:35:52;;;;;;;;;;;21.00;35.50;;;;;;5073768;28;20126;-68
2024/01/19 13:38:19;;;;;;;;;;;21.00;35.80;;;;;;5070765;28;19981;-68
2024/01/19 13:40:44;;;;;;;;;;;20.80;35.90;;;;;;5078974;28;19931;-66
2024/01/19 13:43:10;;;;;;;;;;;20.80;36.10;;;;;;5070323;28;20311;-68
2024/01/19 13:45:35;;;;;;;;;;;20.70;36.50;;;;;;5079932;28;19924;-67
2024/01/19 13:48:02;;;;;;;;;;;20.60;36.80;;;;;;5069209;28;19924;-67
2024/01/19 13:50:27;;;;;;;;;;;20.60;36.40;;;;;;5071478;28;19974;-67
2024/01/19 13:52:53;;;;;;;;;;;20.60;36.50;;;;;;5073428;28;20370;-67
2024/01/19 13:55:19;;;;;;;;;;;20.60;36.50;;;;;;5062887;28;19920;-67
2024/01/19 13:57:44;;;;;;;;;;;20.50;36.60;;;;;;5077194;28;20231;-67
2024/01/19 14:00:10;;;;;;;;;;;20.50;36.80;;;;;;5073513;28;20325;-67
2024/01/19 14:02:35;;;;;;;;;;;20.60;36.90;;;;;;5080804;28;20422;-66
2024/01/19 14:05:07;;;;;;;;;;;20.70;36.60;;;;;;5088950;28;20030;-69
2024/01/19 14:07:33;;;;;;;;;;;20.80;36.30;;;;;;5087607;28;20280;-69
2024/01/19 14:09:59;;;;;;;;;;;20.90;36.00;;;;;;5099585;28;19976;-67
2024/01/19 14:12:26;;;;;;;;;;;21.00;35.70;;;;;;5087920;28;20368;-72
2024/01/19 14:14:51;;;;;;;;;;;21.10;35.60;;;;;;5087036;28;20016;-67
2024/01/19 14:17:17;;;;;;;;;;;21.20;35.50;;;;;;5088666;28;20122;-67
2024/01/19 14:19:43;;;;;;;;;;;21.20;35.40;;;;;;5088119;28;19928;-67
2024/01/19 14:22:09;;;;;;;;;;;21.30;35.20;;;;;;5083823;28;19927;-66
2024/01/19 14:24:34;;;;;;;;;;;21.40;35.10;;;;;;5087668;28;19932;-67